Terminal Aerodrome Forecast
Issued by NWS Cleveland, OH

Home | Current Version | Previous Version | Text Only | Print | Product List | Glossary Off
Versions: 1 2 3 4 5 6 7 8 9 10 11 12 13 14 15 16

000
FTUS41 KCLE 271045 AAA
TAFMFD
TAF AMD
KMFD 271045Z 2711/2806 21010KT P6SM FEW015
     FM271400 22012G22KT P6SM BKN015
     FM271600 22015G25KT P6SM BKN040
     FM271800 24018G28KT P6SM BKN050
      TEMPO 2721/2724 3SM -TSRA OVC035CB
     FM280200 28010KT P6SM VCSH BKN035 BKN120=

USA.gov is the U.S. government's official web portal to all federal, state and local government web resources and services.